sensor_id;sensor_type;location;lat;lon;timestamp;pressure;altitude;pressure_sealevel;temperature;humidity
68320;BME280;55168;51.120;17.024;2022-08-19T00:00:00;99410;;;24.6;70.9
68320;BME280;55168;51.120;17.024;2022-08-19T00:01:00;99420;;;24.7;70.9
68320;BME280;55168;51.120;17.024;2022-08-19T00:02:00;99410;;;24.6;70.7
68320;BME280;55168;51.120;17.024;2022-08-19T00:03:00;99410;;;24.6;70.7
68320;BME280;55168;51.120;17.024;2022-08-19T00:04:01;99420;;;24.6;70.9
68320;BME280;55168;51.120;17.024;2022-08-19T00:05:00;99420;;;24.6;71.0
68320;BME280;55168;51.120;17.024;2022-08-19T00:06:00;99410;;;24.6;71.0
68320;BME280;55168;51.120;17.024;2022-08-19T00:07:00;99420;;;24.6;71.1
68320;BME280;55168;51.120;17.024;2022-08-19T00:08:00;99410;;;24.6;71.1
68320;BME280;55168;51.120;17.024;2022-08-19T00:09:00;99410;;;24.6;71.1
68320;BME280;55168;51.120;17.024;2022-08-19T00:10:00;99410;;;24.6;70.9
68320;BME280;55168;51.120;17.024;2022-08-19T00:11:00;99400;;;24.5;71.2
68320;BME280;55168;51.120;17.024;2022-08-19T00:12:00;99400;;;24.5;71.1
68320;BME280;55168;51.120;17.024;2022-08-19T00:13:00;99400;;;24.5;71.3
68320;BME280;55168;51.120;17.024;2022-08-19T00:14:00;99400;;;24.5;71.4
68320;BME280;55168;51.120;17.024;2022-08-19T00:15:00;99400;;;24.5;71.2
68320;BME280;55168;51.120;17.024;2022-08-19T00:16:00;99400;;;24.5;71.5
68320;BME280;55168;51.120;17.024;2022-08-19T00:17:00;99390;;;24.5;71.5
68320;BME280;55168;51.120;17.024;2022-08-19T00:18:00;99390;;;24.5;71.2
68320;BME280;55168;51.120;17.024;2022-08-19T00:19:00;99380;;;24.5;71.4
68320;BME280;55168;51.120;17.024;2022-08-19T00:20:00;99380;;;24.5;71.7
68320;BME280;55168;51.120;17.024;2022-08-19T00:21:00;99380;;;24.5;71.8
68320;BME280;55168;51.120;17.024;2022-08-19T00:22:00;99380;;;24.4;71.7
68320;BME280;55168;51.120;17.024;2022-08-19T00:23:00;99380;;;24.4;71.9
68320;BME280;55168;51.120;17.024;2022-08-19T00:24:00;99380;;;24.4;71.9
68320;BME280;55168;51.120;17.024;2022-08-19T00:25:00;99380;;;24.4;72.3
68320;BME280;55168;51.120;17.024;2022-08-19T00:26:00;99380;;;24.3;72.4
68320;BME280;55168;51.120;17.024;2022-08-19T00:27:00;99370;;;24.3;72.4
68320;BME280;55168;51.120;17.024;2022-08-19T00:28:00;99370;;;24.3;72.5
68320;BME280;55168;51.120;17.024;2022-08-19T00:29:00;99370;;;24.3;72.6
68320;BME280;55168;51.120;17.024;2022-08-19T00:30:00;99370;;;24.2;72.7
68320;BME280;55168;51.120;17.024;2022-08-19T00:31:00;99370;;;24.2;73.0
68320;BME280;55168;51.120;17.024;2022-08-19T00:32:00;99370;;;24.2;73.1
68320;BME280;55168;51.120;17.024;2022-08-19T00:33:00;99370;;;24.2;73.4
68320;BME280;55168;51.120;17.024;2022-08-19T00:34:00;99360;;;24.1;73.2
68320;BME280;55168;51.120;17.024;2022-08-19T00:35:00;99370;;;24.1;73.2
68320;BME280;55168;51.120;17.024;2022-08-19T00:36:00;99360;;;24.1;73.4
68320;BME280;55168;51.120;17.024;2022-08-19T00:37:00;99370;;;24.1;73.5
68320;BME280;55168;51.120;17.024;2022-08-19T00:38:00;99360;;;24.1;73.6
68320;BME280;55168;51.120;17.024;2022-08-19T00:39:00;99370;;;24.0;73.8
68320;BME280;55168;51.120;17.024;2022-08-19T00:40:00;99370;;;24.0;74.1
68320;BME280;55168;51.120;17.024;2022-08-19T00:41:00;99370;;;24.0;74.2
68320;BME280;55168;51.120;17.024;2022-08-19T00:42:00;99370;;;24.0;74.3
68320;BME280;55168;51.120;17.024;2022-08-19T00:43:00;99370;;;23.9;74.6
68320;BME280;55168;51.120;17.024;2022-08-19T00:44:06;99370;;;23.9;74.6
68320;BME280;55168;51.120;17.024;2022-08-19T00:45:00;99360;;;23.9;74.5
68320;BME280;55168;51.120;17.024;2022-08-19T00:46:00;99360;;;23.9;74.6
68320;BME280;55168;51.120;17.024;2022-08-19T00:47:00;99360;;;23.9;74.6
68320;BME280;55168;51.120;17.024;2022-08-19T00:48:00;99370;;;23.9;74.5
68320;BME280;55168;51.120;17.024;2022-08-19T00:49:00;99370;;;23.9;74.5
68320;BME280;55168;51.120;17.024;2022-08-19T00:50:00;99370;;;23.9;74.7
68320;BME280;55168;51.120;17.024;2022-08-19T00:51:00;99380;;;23.9;74.3
68320;BME280;55168;51.120;17.024;2022-08-19T00:52:02;99380;;;23.9;74.6
68320;BME280;55168;51.120;17.024;2022-08-19T00:53:00;99390;;;23.9;74.7
68320;BME280;55168;51.120;17.024;2022-08-19T00:54:00;99400;;;23.9;74.7
68320;BME280;55168;51.120;17.024;2022-08-19T00:55:00;99400;;;23.9;74.5
68320;BME280;55168;51.120;17.024;2022-08-19T00:56:00;99400;;;23.9;74.3
68320;BME280;55168;51.120;17.024;2022-08-19T00:57:00;99400;;;24.0;74.3
68320;BME280;55168;51.120;17.024;2022-08-19T00:58:02;99400;;;24.0;74.4
68320;BME280;55168;51.120;17.024;2022-08-19T00:59:00;99390;;;24.0;74.4
68320;BME280;55168;51.120;17.024;2022-08-19T01:00:00;99390;;;23.9;74.6
68320;BME280;55168;51.120;17.024;2022-08-19T01:01:00;99390;;;23.9;74.5
68320;BME280;55168;51.120;17.024;2022-08-19T01:02:00;99380;;;23.9;74.6
68320;BME280;55168;51.120;17.024;2022-08-19T01:03:00;99380;;;23.9;74.8
68320;BME280;55168;51.120;17.024;2022-08-19T01:04:00;99380;;;23.9;74.3
68320;BME280;55168;51.120;17.024;2022-08-19T01:05:01;99370;;;23.9;75.7
68320;BME280;55168;51.120;17.024;2022-08-19T01:06:00;99360;;;23.9;75.4
68320;BME280;55168;51.120;17.024;2022-08-19T01:07:00;99340;;;23.9;75.0
68320;BME280;55168;51.120;17.024;2022-08-19T01:08:00;99330;;;23.8;76.2
68320;BME280;55168;51.120;17.024;2022-08-19T01:09:00;99330;;;23.7;77.4
68320;BME280;55168;51.120;17.024;2022-08-19T01:10:00;99320;;;23.6;77.9
68320;BME280;55168;51.120;17.024;2022-08-19T01:11:00;99340;;;23.5;78.1
68320;BME280;55168;51.120;17.024;2022-08-19T01:12:00;99340;;;23.5;78.2
68320;BME280;55168;51.120;17.024;2022-08-19T01:13:00;99350;;;23.5;78.6
68320;BME280;55168;51.120;17.024;2022-08-19T01:14:00;99350;;;23.5;78.8
68320;BME280;55168;51.120;17.024;2022-08-19T01:15:00;99340;;;23.5;78.8
68320;BME280;55168;51.120;17.024;2022-08-19T01:16:02;99350;;;23.5;77.7
68320;BME280;55168;51.120;17.024;2022-08-19T01:17:00;99350;;;23.5;78.6
68320;BME280;55168;51.120;17.024;2022-08-19T01:18:01;99340;;;23.5;79.0
68320;BME280;55168;51.120;17.024;2022-08-19T01:19:00;99350;;;23.5;78.9
68320;BME280;55168;51.120;17.024;2022-08-19T01:20:00;99340;;;23.5;79.3
68320;BME280;55168;51.120;17.024;2022-08-19T01:21:01;99330;;;23.5;79.3
68320;BME280;55168;51.120;17.024;2022-08-19T01:22:02;99330;;;23.5;79.2
68320;BME280;55168;51.120;17.024;2022-08-19T01:23:00;99330;;;23.5;79.3
68320;BME280;55168;51.120;17.024;2022-08-19T01:24:00;99330;;;23.5;78.9
68320;BME280;55168;51.120;17.024;2022-08-19T01:25:00;99320;;;23.5;78.5
68320;BME280;55168;51.120;17.024;2022-08-19T01:26:00;99320;;;23.5;78.8
68320;BME280;55168;51.120;17.024;2022-08-19T01:27:00;99310;;;23.5;78.5
68320;BME280;55168;51.120;17.024;2022-08-19T01:28:00;99310;;;23.5;78.9
68320;BME280;55168;51.120;17.024;2022-08-19T01:29:00;99310;;;23.5;79.0
68320;BME280;55168;51.120;17.024;2022-08-19T01:30:00;99310;;;23.5;78.1
68320;BME280;55168;51.120;17.024;2022-08-19T01:31:00;99310;;;23.5;78.3
68320;BME280;55168;51.120;17.024;2022-08-19T01:32:00;99310;;;23.5;78.1
68320;BME280;55168;51.120;17.024;2022-08-19T01:33:00;99310;;;23.5;78.3
68320;BME280;55168;51.120;17.024;2022-08-19T01:34:00;99310;;;23.5;78.6
68320;BME280;55168;51.120;17.024;2022-08-19T01:35:01;99310;;;23.5;77.9
68320;BME280;55168;51.120;17.024;2022-08-19T01:36:08;99310;;;23.5;78.2
68320;BME280;55168;51.120;17.024;2022-08-19T01:37:00;99300;;;23.5;77.7
68320;BME280;55168;51.120;17.024;2022-08-19T01:38:00;99310;;;23.5;77.8
68320;BME280;55168;51.120;17.024;2022-08-19T01:39:01;99310;;;23.5;77.5
68320;BME280;55168;51.120;17.024;2022-08-19T01:40:00;99320;;;23.5;78.3
68320;BME280;55168;51.120;17.024;2022-08-19T01:41:00;99310;;;23.5;78.3
68320;BME280;55168;51.120;17.024;2022-08-19T01:42:00;99310;;;23.5;78.6
68320;BME280;55168;51.120;17.024;2022-08-19T01:43:00;99310;;;23.5;78.0
68320;BME280;55168;51.120;17.024;2022-08-19T01:44:00;99300;;;23.5;78.0
68320;BME280;55168;51.120;17.024;2022-08-19T01:45:00;99300;;;23.5;77.6
68320;BME280;55168;51.120;17.024;2022-08-19T01:46:00;99300;;;23.5;77.8
68320;BME280;55168;51.120;17.024;2022-08-19T01:47:00;99300;;;23.5;78.0
68320;BME280;55168;51.120;17.024;2022-08-19T01:48:00;99310;;;23.5;77.8
68320;BME280;55168;51.120;17.024;2022-08-19T01:49:00;99300;;;23.5;77.7
68320;BME280;55168;51.120;17.024;2022-08-19T01:50:00;99300;;;23.5;77.2
68320;BME280;55168;51.120;17.024;2022-08-19T01:51:00;99310;;;23.5;77.4
68320;BME280;55168;51.120;17.024;2022-08-19T01:52:00;99310;;;23.5;77.4
68320;BME280;55168;51.120;17.024;2022-08-19T01:53:00;99300;;;23.5;77.5
68320;BME280;55168;51.120;17.024;2022-08-19T01:54:00;99300;;;23.5;77.4
68320;BME280;55168;51.120;17.024;2022-08-19T01:55:00;99310;;;23.5;77.3
68320;BME280;55168;51.120;17.024;2022-08-19T01:56:00;99310;;;23.5;76.8
68320;BME280;55168;51.120;17.024;2022-08-19T01:57:02;99310;;;23.5;76.7
68320;BME280;55168;51.120;17.024;2022-08-19T01:58:00;99310;;;23.5;76.7
68320;BME280;55168;51.120;17.024;2022-08-19T01:59:01;99310;;;23.5;76.8
68320;BME280;55168;51.120;17.024;2022-08-19T02:00:00;99300;;;23.5;77.2
68320;BME280;55168;51.120;17.024;2022-08-19T02:01:00;99310;;;23.4;77.5
68320;BME280;55168;51.120;17.024;2022-08-19T02:02:00;99300;;;23.4;77.7
68320;BME280;55168;51.120;17.024;2022-08-19T02:03:00;99300;;;23.4;77.5
68320;BME280;55168;51.120;17.024;2022-08-19T02:04:00;99300;;;23.3;77.7
68320;BME280;55168;51.120;17.024;2022-08-19T02:05:00;99300;;;23.3;78.3
68320;BME280;55168;51.120;17.024;2022-08-19T02:06:00;99300;;;23.3;78.3
68320;BME280;55168;51.120;17.024;2022-08-19T02:07:00;99300;;;23.3;78.2
68320;BME280;55168;51.120;17.024;2022-08-19T02:08:00;99310;;;23.2;78.4
68320;BME280;55168;51.120;17.024;2022-08-19T02:09:00;99310;;;23.2;78.6
68320;BME280;55168;51.120;17.024;2022-08-19T02:10:02;99310;;;23.2;78.4
68320;BME280;55168;51.120;17.024;2022-08-19T02:11:00;99310;;;23.2;78.5
68320;BME280;55168;51.120;17.024;2022-08-19T02:12:00;99310;;;23.2;78.3
68320;BME280;55168;51.120;17.024;2022-08-19T02:13:00;99310;;;23.2;78.9
68320;BME280;55168;51.120;17.024;2022-08-19T02:14:01;99310;;;23.2;78.4
68320;BME280;55168;51.120;17.024;2022-08-19T02:15:00;99310;;;23.2;78.4
68320;BME280;55168;51.120;17.024;2022-08-19T02:16:00;99310;;;23.2;78.7
68320;BME280;55168;51.120;17.024;2022-08-19T02:17:00;99300;;;23.2;79.3
68320;BME280;55168;51.120;17.024;2022-08-19T02:18:00;99300;;;23.2;79.0
68320;BME280;55168;51.120;17.024;2022-08-19T02:19:00;99290;;;23.1;79.1
68320;BME280;55168;51.120;17.024;2022-08-19T02:20:00;99290;;;23.1;79.0
68320;BME280;55168;51.120;17.024;2022-08-19T02:21:00;99290;;;23.1;78.8
68320;BME280;55168;51.120;17.024;2022-08-19T02:22:00;99280;;;23.1;79.3
68320;BME280;55168;51.120;17.024;2022-08-19T02:23:00;99280;;;23.1;79.0
68320;BME280;55168;51.120;17.024;2022-08-19T02:24:00;99280;;;23.1;79.0
68320;BME280;55168;51.120;17.024;2022-08-19T02:25:00;99270;;;23.1;79.1
68320;BME280;55168;51.120;17.024;2022-08-19T02:26:00;99270;;;23.1;79.2
68320;BME280;55168;51.120;17.024;2022-08-19T02:27:00;99270;;;23.0;79.3
68320;BME280;55168;51.120;17.024;2022-08-19T02:28:00;99270;;;23.0;79.5
68320;BME280;55168;51.120;17.024;2022-08-19T02:29:00;99280;;;23.0;79.8
68320;BME280;55168;51.120;17.024;2022-08-19T02:30:00;99270;;;23.0;79.9
68320;BME280;55168;51.120;17.024;2022-08-19T02:31:00;99290;;;23.0;79.7
68320;BME280;55168;51.120;17.024;2022-08-19T02:32:00;99280;;;23.0;80.1
68320;BME280;55168;51.120;17.024;2022-08-19T02:33:00;99280;;;23.0;79.7
68320;BME280;55168;51.120;17.024;2022-08-19T02:34:00;99280;;;23.0;80.1
68320;BME280;55168;51.120;17.024;2022-08-19T02:35:00;99280;;;23.0;80.2
68320;BME280;55168;51.120;17.024;2022-08-19T02:36:02;99280;;;23.0;79.9
68320;BME280;55168;51.120;17.024;2022-08-19T02:37:00;99280;;;23.0;80.1
68320;BME280;55168;51.120;17.024;2022-08-19T02:38:00;99280;;;22.9;80.2
68320;BME280;55168;51.120;17.024;2022-08-19T02:39:00;99280;;;22.9;80.9
68320;BME280;55168;51.120;17.024;2022-08-19T02:40:00;99270;;;22.9;80.5
68320;BME280;55168;51.120;17.024;2022-08-19T02:41:01;99270;;;22.8;80.8
68320;BME280;55168;51.120;17.024;2022-08-19T02:42:00;99260;;;22.8;81.0
68320;BME280;55168;51.120;17.024;2022-08-19T02:43:02;99260;;;22.8;81.0
68320;BME280;55168;51.120;17.024;2022-08-19T02:44:00;99260;;;22.8;81.2
68320;BME280;55168;51.120;17.024;2022-08-19T02:45:00;99270;;;22.8;81.1
68320;BME280;55168;51.120;17.024;2022-08-19T02:46:00;99270;;;22.7;81.4
68320;BME280;55168;51.120;17.024;2022-08-19T02:47:00;99270;;;22.7;81.2
68320;BME280;55168;51.120;17.024;2022-08-19T02:48:00;99270;;;22.7;81.4
68320;BME280;55168;51.120;17.024;2022-08-19T02:49:00;99270;;;22.7;81.6
68320;BME280;55168;51.120;17.024;2022-08-19T02:50:00;99280;;;22.7;81.6
68320;BME280;55168;51.120;17.024;2022-08-19T02:51:00;99280;;;22.6;82.0
68320;BME280;55168;51.120;17.024;2022-08-19T02:52:00;99280;;;22.7;82.1
68320;BME280;55168;51.120;17.024;2022-08-19T02:53:00;99280;;;22.6;82.2
68320;BME280;55168;51.120;17.024;2022-08-19T02:54:00;99280;;;22.6;81.9
68320;BME280;55168;51.120;17.024;2022-08-19T02:55:00;99280;;;22.6;82.2
68320;BME280;55168;51.120;17.024;2022-08-19T02:56:00;99280;;;22.7;82.1
68320;BME280;55168;51.120;17.024;2022-08-19T02:57:00;99280;;;22.7;82.2
68320;BME280;55168;51.120;17.024;2022-08-19T02:58:00;99280;;;22.7;82.3
68320;BME280;55168;51.120;17.024;2022-08-19T02:59:00;99280;;;22.7;82.4
68320;BME280;55168;51.120;17.024;2022-08-19T03:00:00;99280;;;22.6;82.6
68320;BME280;55168;51.120;17.024;2022-08-19T03:01:00;99280;;;22.6;82.3
68320;BME280;55168;51.120;17.024;2022-08-19T03:02:00;99280;;;22.6;82.9
68320;BME280;55168;51.120;17.024;2022-08-19T03:03:00;99280;;;22.6;83.0
68320;BME280;55168;51.120;17.024;2022-08-19T03:04:01;99280;;;22.6;84.5
68320;BME280;55168;51.120;17.024;2022-08-19T03:05:00;99280;;;22.5;83.4
68320;BME280;55168;51.120;17.024;2022-08-19T03:06:04;99280;;;22.5;83.3
68320;BME280;55168;51.120;17.024;2022-08-19T03:07:00;99280;;;22.6;83.3
68320;BME280;55168;51.120;17.024;2022-08-19T03:08:00;99280;;;22.5;83.3
68320;BME280;55168;51.120;17.024;2022-08-19T03:09:00;99280;;;22.5;83.4
68320;BME280;55168;51.120;17.024;2022-08-19T03:10:00;99280;;;22.5;83.4
68320;BME280;55168;51.120;17.024;2022-08-19T03:11:00;99280;;;22.5;84.4
68320;BME280;55168;51.120;17.024;2022-08-19T03:12:00;99280;;;22.5;83.9
68320;BME280;55168;51.120;17.024;2022-08-19T03:13:00;99280;;;22.4;83.9
68320;BME280;55168;51.120;17.024;2022-08-19T03:14:00;99290;;;22.4;83.7
68320;BME280;55168;51.120;17.024;2022-08-19T03:15:00;99290;;;22.4;84.0
68320;BME280;55168;51.120;17.024;2022-08-19T03:16:00;99300;;;22.4;84.4
68320;BME280;55168;51.120;17.024;2022-08-19T03:17:00;99300;;;22.4;84.4
68320;BME280;55168;51.120;17.024;2022-08-19T03:18:00;99310;;;22.4;84.1
68320;BME280;55168;51.120;17.024;2022-08-19T03:19:00;99310;;;22.4;84.1
68320;BME280;55168;51.120;17.024;2022-08-19T03:20:00;99310;;;22.5;83.9
68320;BME280;55168;51.120;17.024;2022-08-19T03:21:00;99320;;;22.4;84.2
68320;BME280;55168;51.120;17.024;2022-08-19T03:22:00;99320;;;22.4;84.3
68320;BME280;55168;51.120;17.024;2022-08-19T03:23:00;99320;;;22.4;84.4
68320;BME280;55168;51.120;17.024;2022-08-19T03:24:01;99320;;;22.4;84.6
68320;BME280;55168;51.120;17.024;2022-08-19T03:25:00;99320;;;22.3;84.8
68320;BME280;55168;51.120;17.024;2022-08-19T03:26:02;99310;;;22.3;85.0
68320;BME280;55168;51.120;17.024;2022-08-19T03:27:00;99310;;;22.2;85.4
68320;BME280;55168;51.120;17.024;2022-08-19T03:28:00;99320;;;22.2;85.6
68320;BME280;55168;51.120;17.024;2022-08-19T03:29:01;99320;;;22.2;85.6
68320;BME280;55168;51.120;17.024;2022-08-19T03:30:00;99320;;;22.2;85.7
68320;BME280;55168;51.120;17.024;2022-08-19T03:31:01;99320;;;22.2;85.9
68320;BME280;55168;51.120;17.024;2022-08-19T03:32:00;99320;;;22.2;85.9
68320;BME280;55168;51.120;17.024;2022-08-19T03:33:00;99320;;;22.1;86.0
68320;BME280;55168;51.120;17.024;2022-08-19T03:34:00;99330;;;22.2;86.0
68320;BME280;55168;51.120;17.024;2022-08-19T03:35:00;99320;;;22.1;86.2
68320;BME280;55168;51.120;17.024;2022-08-19T03:36:01;99320;;;22.1;86.5
68320;BME280;55168;51.120;17.024;2022-08-19T03:37:03;99310;;;22.1;86.7
68320;BME280;55168;51.120;17.024;2022-08-19T03:38:00;99320;;;22.1;86.6
68320;BME280;55168;51.120;17.024;2022-08-19T03:39:00;99310;;;22.1;86.6
68320;BME280;55168;51.120;17.024;2022-08-19T03:40:00;99310;;;22.1;86.8
68320;BME280;55168;51.120;17.024;2022-08-19T03:41:04;99320;;;22.0;87.0
68320;BME280;55168;51.120;17.024;2022-08-19T03:42:00;99310;;;22.0;87.1
68320;BME280;55168;51.120;17.024;2022-08-19T03:43:00;99310;;;22.0;87.3
68320;BME280;55168;51.120;17.024;2022-08-19T03:44:00;99310;;;22.0;87.5
68320;BME280;55168;51.120;17.024;2022-08-19T03:45:00;99320;;;22.0;87.5
68320;BME280;55168;51.120;17.024;2022-08-19T03:46:01;99320;;;22.0;87.7
68320;BME280;55168;51.120;17.024;2022-08-19T03:47:00;99320;;;21.9;88.0
68320;BME280;55168;51.120;17.024;2022-08-19T03:48:00;99310;;;21.9;88.2
68320;BME280;55168;51.120;17.024;2022-08-19T03:49:00;99310;;;21.9;88.3
68320;BME280;55168;51.120;17.024;2022-08-19T03:50:00;99310;;;21.9;88.1
68320;BME280;55168;51.120;17.024;2022-08-19T03:51:00;99310;;;21.9;88.3
68320;BME280;55168;51.120;17.024;2022-08-19T03:52:00;99310;;;21.9;88.4
68320;BME280;55168;51.120;17.024;2022-08-19T03:53:00;99300;;;21.9;88.5
68320;BME280;55168;51.120;17.024;2022-08-19T03:54:01;99310;;;21.9;88.7
68320;BME280;55168;51.120;17.024;2022-08-19T03:55:00;99310;;;21.8;88.9
68320;BME280;55168;51.120;17.024;2022-08-19T03:56:00;99310;;;21.8;88.8
68320;BME280;55168;51.120;17.024;2022-08-19T03:57:00;99310;;;21.8;89.1
68320;BME280;55168;51.120;17.024;2022-08-19T03:58:00;99320;;;21.8;89.0
68320;BME280;55168;51.120;17.024;2022-08-19T03:59:00;99320;;;21.9;88.8
68320;BME280;55168;51.120;17.024;2022-08-19T04:00:00;99320;;;21.9;88.9
68320;BME280;55168;51.120;17.024;2022-08-19T04:01:00;99320;;;21.8;88.9
68320;BME280;55168;51.120;17.024;2022-08-19T04:02:00;99320;;;21.8;88.9
68320;BME280;55168;51.120;17.024;2022-08-19T04:03:00;99320;;;21.8;89.2
68320;BME280;55168;51.120;17.024;2022-08-19T04:04:00;99330;;;21.8;88.9
68320;BME280;55168;51.120;17.024;2022-08-19T04:05:00;99330;;;21.8;89.3
68320;BME280;55168;51.120;17.024;2022-08-19T04:06:08;99330;;;21.8;89.4
68320;BME280;55168;51.120;17.024;2022-08-19T04:07:00;99330;;;21.7;90.0
68320;BME280;55168;51.120;17.024;2022-08-19T04:08:00;99340;;;21.7;89.8
68320;BME280;55168;51.120;17.024;2022-08-19T04:09:00;99340;;;21.8;89.6
68320;BME280;55168;51.120;17.024;2022-08-19T04:10:00;99340;;;21.8;89.4
68320;BME280;55168;51.120;17.024;2022-08-19T04:11:00;99340;;;21.8;89.5
68320;BME280;55168;51.120;17.024;2022-08-19T04:12:00;99340;;;21.8;90.1
68320;BME280;55168;51.120;17.024;2022-08-19T04:13:00;99340;;;21.8;89.4
68320;BME280;55168;51.120;17.024;2022-08-19T04:14:00;99340;;;21.8;89.2
68320;BME280;55168;51.120;17.024;2022-08-19T04:15:00;99340;;;21.8;89.0
68320;BME280;55168;51.120;17.024;2022-08-19T04:16:00;99330;;;21.9;89.0
68320;BME280;55168;51.120;17.024;2022-08-19T04:17:00;99330;;;21.9;89.1
68320;BME280;55168;51.120;17.024;2022-08-19T04:18:00;99330;;;21.9;89.1
68320;BME280;55168;51.120;17.024;2022-08-19T04:19:00;99340;;;21.9;89.6
68320;BME280;55168;51.120;17.024;2022-08-19T04:20:00;99330;;;21.9;89.0
68320;BME280;55168;51.120;17.024;2022-08-19T04:21:00;99330;;;21.9;88.7
68320;BME280;55168;51.120;17.024;2022-08-19T04:22:00;99340;;;22.0;88.5
68320;BME280;55168;51.120;17.024;2022-08-19T04:23:00;99340;;;22.0;88.4
68320;BME280;55168;51.120;17.024;2022-08-19T04:24:00;99340;;;22.0;88.3
68320;BME280;55168;51.120;17.024;2022-08-19T04:25:00;99340;;;22.0;88.5
68320;BME280;55168;51.120;17.024;2022-08-19T04:26:00;99350;;;22.1;88.4
68320;BME280;55168;51.120;17.024;2022-08-19T04:27:00;99350;;;22.0;88.5
68320;BME280;55168;51.120;17.024;2022-08-19T04:28:00;99340;;;22.0;88.3
68320;BME280;55168;51.120;17.024;2022-08-19T04:29:01;99340;;;22.0;88.6
68320;BME280;55168;51.120;17.024;2022-08-19T04:30:00;99340;;;22.1;88.3
68320;BME280;55168;51.120;17.024;2022-08-19T04:31:00;99340;;;22.1;88.1
68320;BME280;55168;51.120;17.024;2022-08-19T04:32:00;99340;;;22.1;88.2
68320;BME280;55168;51.120;17.024;2022-08-19T04:33:00;99340;;;22.2;88.2
68320;BME280;55168;51.120;17.024;2022-08-19T04:34:00;99340;;;22.1;87.9
68320;BME280;55168;51.120;17.024;2022-08-19T04:35:00;99340;;;22.1;87.9
68320;BME280;55168;51.120;17.024;2022-08-19T04:36:00;99340;;;22.2;88.0
68320;BME280;55168;51.120;17.024;2022-08-19T04:37:00;99340;;;22.2;88.1
68320;BME280;55168;51.120;17.024;2022-08-19T04:38:00;99340;;;22.2;88.5
68320;BME280;55168;51.120;17.024;2022-08-19T04:39:02;99340;;;22.2;88.0
68320;BME280;55168;51.120;17.024;2022-08-19T04:40:00;99340;;;22.3;88.7
68320;BME280;55168;51.120;17.024;2022-08-19T04:41:01;99330;;;22.3;87.9
68320;BME280;55168;51.120;17.024;2022-08-19T04:42:00;99330;;;22.3;88.0
68320;BME280;55168;51.120;17.024;2022-08-19T04:43:00;99330;;;22.3;88.1
68320;BME280;55168;51.120;17.024;2022-08-19T04:44:00;99330;;;22.3;87.6
68320;BME280;55168;51.120;17.024;2022-08-19T04:45:00;99330;;;22.4;87.5
68320;BME280;55168;51.120;17.024;2022-08-19T04:46:08;99330;;;22.4;87.2
68320;BME280;55168;51.120;17.024;2022-08-19T04:47:00;99330;;;22.4;87.2
68320;BME280;55168;51.120;17.024;2022-08-19T04:48:00;99330;;;22.5;87.0
68320;BME280;55168;51.120;17.024;2022-08-19T04:49:00;99340;;;22.5;86.8
68320;BME280;55168;51.120;17.024;2022-08-19T04:50:00;99340;;;22.5;86.6
68320;BME280;55168;51.120;17.024;2022-08-19T04:51:00;99340;;;22.6;86.5
68320;BME280;55168;51.120;17.024;2022-08-19T04:52:00;99340;;;22.6;86.0
68320;BME280;55168;51.120;17.024;2022-08-19T04:53:00;99340;;;22.6;86.0
68320;BME280;55168;51.120;17.024;2022-08-19T04:54:01;99340;;;22.6;86.3
68320;BME280;55168;51.120;17.024;2022-08-19T04:55:00;99340;;;22.6;87.3
68320;BME280;55168;51.120;17.024;2022-08-19T04:56:03;99340;;;22.6;88.3
68320;BME280;55168;51.120;17.024;2022-08-19T04:57:00;99330;;;22.6;87.9
68320;BME280;55168;51.120;17.024;2022-08-19T04:58:00;99330;;;22.6;87.1
68320;BME280;55168;51.120;17.024;2022-08-19T04:59:00;99330;;;22.6;86.2
68320;BME280;55168;51.120;17.024;2022-08-19T05:00:00;99330;;;22.6;86.2
68320;BME280;55168;51.120;17.024;2022-08-19T05:01:00;99330;;;22.7;86.2
68320;BME280;55168;51.120;17.024;2022-08-19T05:02:00;99330;;;22.7;86.6
68320;BME280;55168;51.120;17.024;2022-08-19T05:03:00;99330;;;22.7;86.4
68320;BME280;55168;51.120;17.024;2022-08-19T05:04:00;99330;;;22.7;86.3
68320;BME280;55168;51.120;17.024;2022-08-19T05:05:00;99330;;;22.8;86.0
68320;BME280;55168;51.120;17.024;2022-08-19T05:06:08;99320;;;22.8;86.7
68320;BME280;55168;51.120;17.024;2022-08-19T05:07:00;99320;;;22.7;86.5
68320;BME280;55168;51.120;17.024;2022-08-19T05:08:00;99320;;;22.7;87.2
68320;BME280;55168;51.120;17.024;2022-08-19T05:09:00;99320;;;22.7;86.9
68320;BME280;55168;51.120;17.024;2022-08-19T05:10:00;99320;;;22.7;86.7
68320;BME280;55168;51.120;17.024;2022-08-19T05:11:00;99330;;;22.7;86.9
68320;BME280;55168;51.120;17.024;2022-08-19T05:12:00;99330;;;22.7;87.0
68320;BME280;55168;51.120;17.024;2022-08-19T05:13:00;99330;;;22.6;86.9
68320;BME280;55168;51.120;17.024;2022-08-19T05:14:00;99330;;;22.6;87.3
68320;BME280;55168;51.120;17.024;2022-08-19T05:15:01;99330;;;22.6;87.3
68320;BME280;55168;51.120;17.024;2022-08-19T05:16:00;99330;;;22.7;86.9
68320;BME280;55168;51.120;17.024;2022-08-19T05:17:00;99330;;;22.7;86.9
68320;BME280;55168;51.120;17.024;2022-08-19T05:18:00;99330;;;22.7;87.4
68320;BME280;55168;51.120;17.024;2022-08-19T05:19:00;99330;;;22.7;87.1
68320;BME280;55168;51.120;17.024;2022-08-19T05:20:00;99340;;;22.8;86.7
68320;BME280;55168;51.120;17.024;2022-08-19T05:21:04;99340;;;22.7;86.8
68320;BME280;55168;51.120;17.024;2022-08-19T05:22:00;99340;;;22.6;87.8
68320;BME280;55168;51.120;17.024;2022-08-19T05:23:00;99340;;;22.7;88.1
68320;BME280;55168;51.120;17.024;2022-08-19T05:24:00;99340;;;22.8;87.1
68320;BME280;55168;51.120;17.024;2022-08-19T05:25:02;99340;;;22.8;86.8
68320;BME280;55168;51.120;17.024;2022-08-19T05:26:00;99340;;;22.9;86.3
68320;BME280;55168;51.120;17.024;2022-08-19T05:27:00;99340;;;22.9;86.1
68320;BME280;55168;51.120;17.024;2022-08-19T05:28:00;99340;;;22.9;86.4
68320;BME280;55168;51.120;17.024;2022-08-19T05:29:00;99330;;;22.9;86.3
68320;BME280;55168;51.120;17.024;2022-08-19T05:30:00;99330;;;22.9;86.3
68320;BME280;55168;51.120;17.024;2022-08-19T05:31:00;99330;;;22.9;86.7
68320;BME280;55168;51.120;17.024;2022-08-19T05:32:00;99330;;;22.8;88.1
68320;BME280;55168;51.120;17.024;2022-08-19T05:33:00;99330;;;22.8;87.3
68320;BME280;55168;51.120;17.024;2022-08-19T05:34:00;99330;;;22.9;86.7
68320;BME280;55168;51.120;17.024;2022-08-19T05:35:00;99330;;;22.9;87.0